createdAt,value
2023-03-26T00:00:05.773Z,2.47
2023-03-26T00:02:42.116Z,3.00
2023-03-26T00:05:14.698Z,2.63
2023-03-26T00:07:44.258Z,2.42
2023-03-26T00:10:15.649Z,2.77
2023-03-26T00:12:47.602Z,2.90
2023-03-26T00:15:16.967Z,2.90
2023-03-26T00:17:47.785Z,2.50
2023-03-26T00:20:17.219Z,2.67
2023-03-26T00:22:46.548Z,2.33
2023-03-26T00:25:16.191Z,2.67
2023-03-26T00:27:49.771Z,2.70
2023-03-26T00:30:19.708Z,2.30
2023-03-26T00:32:53.768Z,3.07
2023-03-26T00:35:24.132Z,2.30
2023-03-26T00:37:54.295Z,2.00
2023-03-26T00:40:24.894Z,2.60
2023-03-26T00:42:57.150Z,2.23
2023-03-26T00:45:26.459Z,2.00
2023-03-26T00:47:55.820Z,2.23
2023-03-26T00:50:25.467Z,1.70
2023-03-26T01:03:04.628Z,2.00
2023-03-26T01:05:45.355Z,2.00
2023-03-26T01:08:18.716Z,2.23
2023-03-26T01:13:24.789Z,2.47
2023-03-26T01:15:54.399Z,2.43
2023-03-26T01:18:26.495Z,2.60
2023-03-26T01:20:58.734Z,2.83
2023-03-26T01:23:32.807Z,2.80
2023-03-26T01:26:09.661Z,2.53
2023-03-26T01:28:41.371Z,2.40
2023-03-26T01:31:17.485Z,2.07
2023-03-26T01:33:49.462Z,1.90
2023-03-26T01:39:00.669Z,1.70
2023-03-26T01:41:35.170Z,2.27
2023-03-26T01:44:07.385Z,1.87
2023-03-26T01:46:37.187Z,2.00
2023-03-26T01:51:43.790Z,2.73
2023-03-26T01:54:17.078Z,2.17
2023-03-26T01:56:53.926Z,2.07
2023-03-26T01:59:35.334Z,2.37
2023-03-26T02:02:10.436Z,1.83
2023-03-26T02:12:39.321Z,1.53
2023-03-26T02:15:09.751Z,1.40
2023-03-26T02:17:40.513Z,1.33
2023-03-26T02:20:11.937Z,1.60
2023-03-26T02:22:41.945Z,1.40
2023-03-26T02:27:47.078Z,1.33
2023-03-26T02:32:54.259Z,1.40
2023-03-26T02:40:30.368Z,1.70
2023-03-26T02:43:03.161Z,1.37
2023-03-26T02:48:09.906Z,1.27
2023-03-26T02:50:54.445Z,1.17
2023-03-26T02:53:42.473Z,1.00
2023-03-26T02:56:26.146Z,0.93
2023-03-26T03:04:39.834Z,1.40
2023-03-26T03:12:43.045Z,1.30
2023-03-26T03:15:15.559Z,1.43
2023-03-26T03:20:15.793Z,1.50
2023-03-26T03:22:45.546Z,1.27
2023-03-26T03:25:17.686Z,1.20
2023-03-26T03:27:48.757Z,1.43
2023-03-26T03:30:20.756Z,1.40
2023-03-26T03:32:50.488Z,1.30
2023-03-26T03:37:58.022Z,1.23
2023-03-26T03:40:27.485Z,1.10
2023-03-26T03:42:56.903Z,1.73
2023-03-26T03:48:18.534Z,1.20
2023-03-26T03:50:49.554Z,1.60
2023-03-26T03:53:26.583Z,1.20
2023-03-26T03:55:59.814Z,1.27
2023-03-26T03:58:47.575Z,1.50
2023-03-26T04:01:25.400Z,1.80
2023-03-26T04:04:02.594Z,1.30
2023-03-26T04:06:49.764Z,1.67
2023-03-26T04:09:19.510Z,1.50
2023-03-26T04:11:50.945Z,1.73
2023-03-26T04:14:29.309Z,1.83
2023-03-26T04:17:05.480Z,2.17
2023-03-26T04:19:37.535Z,2.97
2023-03-26T04:22:12.158Z,1.95
2023-03-26T04:24:55.252Z,2.60
2023-03-26T04:27:47.953Z,2.03
2023-03-26T04:30:23.411Z,2.00
2023-03-26T04:33:04.101Z,1.67
2023-03-26T04:35:37.216Z,2.00
2023-03-26T04:38:09.048Z,2.43
2023-03-26T04:40:42.585Z,1.75
2023-03-26T04:43:19.137Z,1.70
2023-03-26T04:46:07.643Z,1.67
2023-03-26T04:48:45.831Z,1.50
2023-03-26T04:51:18.082Z,1.40
2023-03-26T04:53:51.313Z,1.77
2023-03-26T04:56:44.228Z,1.73
2023-03-26T04:59:35.423Z,1.50
2023-03-26T05:02:09.755Z,1.77
2023-03-26T05:04:52.669Z,1.60
2023-03-26T05:07:24.295Z,1.50
2023-03-26T05:09:57.615Z,1.33
2023-03-26T05:13:05.629Z,2.30
2023-03-26T05:15:40.986Z,1.93
2023-03-26T05:18:34.022Z,2.40
2023-03-26T05:21:07.226Z,1.87
2023-03-26T05:23:36.739Z,1.98
2023-03-26T05:26:20.507Z,2.03
2023-03-26T05:28:50.440Z,2.63
2023-03-26T05:31:27.187Z,2.00
2023-03-26T05:34:00.588Z,2.17
2023-03-26T05:36:33.059Z,3.50
2023-03-26T05:39:30.088Z,2.80
2023-03-26T05:41:59.420Z,3.00
2023-03-26T05:44:38.027Z,2.90
2023-03-26T05:47:17.021Z,2.40
2023-03-26T05:49:47.079Z,2.43
2023-03-26T05:52:19.249Z,2.97
2023-03-26T05:55:08.352Z,2.70
2023-03-26T06:00:49.474Z,2.90
2023-03-26T06:03:29.551Z,2.80
2023-03-26T06:06:15.625Z,2.73
2023-03-26T06:09:02.329Z,2.53
2023-03-26T06:11:32.739Z,3.33
2023-03-26T06:14:03.451Z,2.70
2023-03-26T06:16:33.642Z,2.40
2023-03-26T06:19:23.197Z,3.17
2023-03-26T06:22:02.326Z,2.53
2023-03-26T06:24:50.384Z,2.83
2023-03-26T06:27:27.913Z,2.47
2023-03-26T06:30:16.159Z,2.60
2023-03-26T06:32:55.869Z,2.83
2023-03-26T06:35:30.038Z,2.63
2023-03-26T06:40:33.709Z,2.47
2023-03-26T06:43:21.604Z,3.20
2023-03-26T06:45:59.430Z,2.60
2023-03-26T06:48:57.752Z,2.67
2023-03-26T06:51:47.641Z,2.10
2023-03-26T06:54:30.796Z,2.70
2023-03-26T06:57:21.143Z,2.43
2023-03-26T07:00:09.792Z,3.00
2023-03-26T07:03:06.310Z,2.10
2023-03-26T17:22:00.102Z,2.03
2023-03-26T17:38:30.404Z,2.50
2023-03-26T17:48:56.596Z,2.10
2023-03-26T17:54:16.401Z,1.90
2023-03-26T17:56:45.989Z,2.17
2023-03-26T17:59:18.801Z,2.77
2023-03-26T18:04:21.855Z,2.10
2023-03-26T18:09:32.968Z,2.27
2023-03-26T18:12:08.140Z,2.10
2023-03-26T18:14:52.448Z,2.40
2023-03-26T18:17:21.772Z,2.30
2023-03-26T18:19:51.863Z,2.93
2023-03-26T18:22:23.096Z,3.57
2023-03-26T18:25:02.099Z,2.80
2023-03-26T18:27:36.192Z,2.03
2023-03-26T18:30:15.837Z,2.13
2023-03-26T18:32:50.946Z,2.17
2023-03-26T18:35:21.614Z,2.87
2023-03-26T18:37:52.083Z,2.30
2023-03-26T18:40:25.127Z,2.27
2023-03-26T18:42:55.963Z,2.73
2023-03-26T18:45:27.990Z,2.20
2023-03-26T18:47:58.939Z,2.13
2023-03-26T18:50:31.081Z,2.47
2023-03-26T18:53:02.078Z,2.42
2023-03-26T18:55:34.588Z,3.63
2023-03-26T18:58:13.095Z,2.55
2023-03-26T19:00:43.089Z,2.00
2023-03-26T19:03:13.524Z,2.40
2023-03-26T19:05:42.976Z,2.63
2023-03-26T19:08:12.532Z,2.03
2023-03-26T19:10:44.597Z,2.50
2023-03-26T19:13:15.959Z,2.60
2023-03-26T19:15:46.596Z,2.40
2023-03-26T19:18:19.212Z,1.87
2023-03-26T19:20:50.181Z,2.40
2023-03-26T19:23:21.357Z,3.27
2023-03-26T19:25:54.995Z,2.03
2023-03-26T19:28:25.246Z,2.40
2023-03-26T19:30:59.210Z,2.77
2023-03-26T19:33:36.597Z,2.37
2023-03-26T19:36:08.428Z,3.33
2023-03-26T19:38:41.490Z,1.90
2023-03-26T19:41:21.206Z,1.93
2023-03-26T19:43:51.266Z,1.93
2023-03-26T19:46:20.804Z,1.93
2023-03-26T19:48:52.012Z,1.63
2023-03-26T19:51:22.630Z,1.70
2023-03-26T19:53:55.045Z,2.40
2023-03-26T19:56:27.432Z,2.72
2023-03-26T19:58:57.118Z,2.65
2023-03-26T20:01:27.882Z,2.43
2023-03-26T20:03:58.994Z,2.60
2023-03-26T20:06:42.686Z,2.37
2023-03-26T20:09:14.128Z,2.07
2023-03-26T20:11:47.165Z,1.40
2023-03-26T20:14:17.456Z,1.60
2023-03-26T20:16:46.944Z,1.57
2023-03-26T20:19:16.852Z,1.87
2023-03-26T20:21:46.450Z,1.57
2023-03-26T20:24:17.324Z,1.80
2023-03-26T20:26:49.566Z,1.90
2023-03-26T20:29:19.950Z,1.45
2023-03-26T20:31:49.502Z,1.60
2023-03-26T20:34:20.546Z,1.77
2023-03-26T20:36:55.053Z,1.53
2023-03-26T20:39:24.948Z,1.40
2023-03-26T20:41:57.826Z,0.97
2023-03-26T20:47:03.203Z,1.63
2023-03-26T20:49:33.380Z,1.67
2023-03-26T20:52:02.876Z,2.13
2023-03-26T20:54:32.820Z,1.97
2023-03-26T20:57:07.488Z,1.80
2023-03-26T20:59:37.014Z,1.75
2023-03-26T21:02:06.501Z,1.30
2023-03-26T21:04:36.041Z,1.60
2023-03-26T21:07:17.518Z,2.63
2023-03-26T21:09:48.901Z,1.80
2023-03-26T21:12:26.304Z,1.77
2023-03-26T21:14:57.381Z,1.73
2023-03-26T21:17:27.327Z,1.60
2023-03-26T21:20:00.628Z,1.70
2023-03-26T21:22:33.832Z,1.40
2023-03-26T21:27:40.295Z,1.50
2023-03-26T21:30:14.618Z,1.60
2023-03-26T21:32:45.137Z,1.40
2023-03-26T21:35:19.323Z,1.63
2023-03-26T21:37:49.408Z,1.70
2023-03-26T21:40:19.544Z,1.80
2023-03-26T21:42:52.372Z,2.17
2023-03-26T21:45:22.559Z,1.53
2023-03-26T21:47:52.322Z,1.33
2023-03-26T21:50:23.683Z,1.30
2023-03-26T21:52:53.822Z,1.77
2023-03-26T21:55:24.765Z,2.20
2023-03-26T21:58:13.732Z,1.53
2023-03-26T22:00:48.515Z,1.90
2023-03-26T22:03:23.287Z,1.27
2023-03-26T22:05:57.701Z,1.60
2023-03-26T22:08:30.122Z,1.57
2023-03-26T22:10:59.607Z,1.42
2023-03-26T22:13:31.454Z,2.27
2023-03-26T22:16:00.947Z,1.10
2023-03-26T22:18:30.407Z,1.37
2023-03-26T22:21:00.129Z,1.40
2023-03-26T22:23:36.512Z,1.40
2023-03-26T22:26:06.454Z,1.50
2023-03-26T22:28:38.422Z,1.40
2023-03-26T22:31:09.174Z,4.00
2023-03-26T22:33:40.187Z,1.30
2023-03-26T22:36:22.873Z,1.30
2023-03-26T22:38:54.498Z,1.60
2023-03-26T22:41:24.237Z,1.73
2023-03-26T22:43:59.615Z,1.33
2023-03-26T22:46:31.235Z,1.50
2023-03-26T22:49:00.691Z,1.60
2023-03-26T22:51:31.111Z,1.93
2023-03-26T22:54:00.400Z,1.50
2023-03-26T22:56:30.680Z,1.70
2023-03-26T22:59:03.875Z,1.40
2023-03-26T23:01:33.197Z,1.17
2023-03-26T23:04:02.554Z,1.37
2023-03-26T23:06:31.865Z,1.30
2023-03-26T23:09:01.501Z,1.53
2023-03-26T23:11:31.278Z,1.57
2023-03-26T23:14:03.286Z,1.23
2023-03-26T23:16:32.648Z,1.05
2023-03-26T23:19:02.056Z,2.17
2023-03-26T23:21:31.358Z,1.60
2023-03-26T23:24:00.786Z,1.40
2023-03-26T23:26:34.960Z,1.20
2023-03-26T23:29:09.788Z,1.70
2023-03-26T23:31:42.192Z,2.05
2023-03-26T23:34:13.605Z,1.73
2023-03-26T23:36:44.802Z,1.87
2023-03-26T23:39:14.207Z,1.20
2023-03-26T23:41:43.952Z,1.60
2023-03-26T23:44:17.137Z,1.23
2023-03-26T23:46:46.460Z,1.20
2023-03-26T23:49:15.773Z,1.37
2023-03-26T23:51:45.049Z,1.40
2023-03-26T23:54:15.273Z,1.67
2023-03-26T23:56:44.630Z,1.57
2023-03-26T23:59:17.106Z,1.20
